sensor_id;sensor_type;location;lat;lon;timestamp;pressure;altitude;pressure_sealevel;temperature;humidity
45050;BME280;61798;48.048;-1.928;2023-02-14T00:01:48;102431.28;;;0.48;100.00
45050;BME280;61798;48.048;-1.928;2023-02-14T00:03:58;102412.88;;;0.30;100.00
45050;BME280;61798;48.048;-1.928;2023-02-14T00:06:15;102405.28;;;0.24;100.00
45050;BME280;61798;48.048;-1.928;2023-02-14T00:08:25;102438.94;;;0.37;100.00
45050;BME280;61798;48.048;-1.928;2023-02-14T00:10:39;102425.28;;;0.28;100.00
45050;BME280;61798;48.048;-1.928;2023-02-14T00:12:57;102419.72;;;0.35;100.00
45050;BME280;61798;48.048;-1.928;2023-02-14T00:15:11;102437.75;;;0.43;100.00
45050;BME280;61798;48.048;-1.928;2023-02-14T00:17:36;102425.84;;;0.35;100.00
45050;BME280;61798;48.048;-1.928;2023-02-14T00:19:43;102424.97;;;0.35;100.00
45050;BME280;61798;48.048;-1.928;2023-02-14T00:21:58;102418.78;;;0.36;100.00
45050;BME280;61798;48.048;-1.928;2023-02-14T00:24:16;102441.25;;;0.43;100.00
45050;BME280;61798;48.048;-1.928;2023-02-14T00:26:29;102441.94;;;0.47;100.00
45050;BME280;61798;48.048;-1.928;2023-02-14T00:28:42;102405.91;;;0.29;100.00
45050;BME280;61798;48.048;-1.928;2023-02-14T00:30:59;102390.75;;;0.33;100.00
45050;BME280;61798;48.048;-1.928;2023-02-14T00:33:15;102426.03;;;0.48;100.00
45050;BME280;61798;48.048;-1.928;2023-02-14T00:35:25;102409.88;;;0.55;100.00
45050;BME280;61798;48.048;-1.928;2023-02-14T00:37:38;102409.31;;;0.31;100.00
45050;BME280;61798;48.048;-1.928;2023-02-14T00:39:50;102412.38;;;0.40;100.00
45050;BME280;61798;48.048;-1.928;2023-02-14T00:42:00;102420.91;;;0.45;100.00
45050;BME280;61798;48.048;-1.928;2023-02-14T00:44:15;102424.56;;;0.43;100.00
45050;BME280;61798;48.048;-1.928;2023-02-14T00:46:26;102418.50;;;0.40;100.00
45050;BME280;61798;48.048;-1.928;2023-02-14T00:48:36;102420.81;;;0.30;100.00
45050;BME280;61798;48.048;-1.928;2023-02-14T00:50:46;102410.81;;;0.19;100.00
45050;BME280;61798;48.048;-1.928;2023-02-14T00:52:59;102415.53;;;0.13;100.00
45050;BME280;61798;48.048;-1.928;2023-02-14T00:55:13;102389.59;;;-0.13;100.00
45050;BME280;61798;48.048;-1.928;2023-02-14T00:57:26;102398.25;;;-0.11;100.00
45050;BME280;61798;48.048;-1.928;2023-02-14T00:59:35;102384.56;;;-0.18;100.00
45050;BME280;61798;48.048;-1.928;2023-02-14T01:01:57;102396.19;;;-0.22;100.00
45050;BME280;61798;48.048;-1.928;2023-02-14T01:04:21;102402.78;;;-0.13;100.00
45050;BME280;61798;48.048;-1.928;2023-02-14T01:06:30;102380.91;;;-0.33;100.00
45050;BME280;61798;48.048;-1.928;2023-02-14T01:08:40;102385.88;;;-0.27;100.00
45050;BME280;61798;48.048;-1.928;2023-02-14T01:10:57;102403.00;;;-0.18;100.00
45050;BME280;61798;48.048;-1.928;2023-02-14T01:13:15;102411.28;;;-0.26;100.00
45050;BME280;61798;48.048;-1.928;2023-02-14T01:15:30;102380.72;;;-0.48;100.00
45050;BME280;61798;48.048;-1.928;2023-02-14T01:17:43;102383.00;;;-0.22;100.00
45050;BME280;61798;48.048;-1.928;2023-02-14T01:19:55;102385.72;;;-0.06;100.00
45050;BME280;61798;48.048;-1.928;2023-02-14T01:22:09;102389.69;;;-0.33;100.00
45050;BME280;61798;48.048;-1.928;2023-02-14T01:24:22;102394.91;;;-0.50;100.00
45050;BME280;61798;48.048;-1.928;2023-02-14T01:26:34;102396.84;;;-0.54;100.00
45050;BME280;61798;48.048;-1.928;2023-02-14T01:28:44;102416.78;;;-0.48;100.00
45050;BME280;61798;48.048;-1.928;2023-02-14T01:30:54;102418.06;;;-0.57;100.00
45050;BME280;61798;48.048;-1.928;2023-02-14T01:33:09;102397.28;;;-0.64;100.00
45050;BME280;61798;48.048;-1.928;2023-02-14T01:35:26;102394.25;;;-0.73;100.00
45050;BME280;61798;48.048;-1.928;2023-02-14T01:37:42;102420.06;;;-0.62;100.00
45050;BME280;61798;48.048;-1.928;2023-02-14T01:39:52;102407.72;;;-0.80;100.00
45050;BME280;61798;48.048;-1.928;2023-02-14T01:42:05;102430.59;;;-0.62;100.00
45050;BME280;61798;48.048;-1.928;2023-02-14T01:46:34;102408.00;;;-0.86;100.00
45050;BME280;61798;48.048;-1.928;2023-02-14T01:48:45;102424.47;;;-0.63;100.00
45050;BME280;61798;48.048;-1.928;2023-02-14T01:50:56;102414.47;;;-0.74;100.00
45050;BME280;61798;48.048;-1.928;2023-02-14T01:53:09;102399.03;;;-0.82;100.00
45050;BME280;61798;48.048;-1.928;2023-02-14T01:55:28;102367.19;;;-1.14;100.00
45050;BME280;61798;48.048;-1.928;2023-02-14T01:58:01;102379.44;;;-1.13;100.00
45050;BME280;61798;48.048;-1.928;2023-02-14T02:00:16;102394.66;;;-1.20;100.00
45050;BME280;61798;48.048;-1.928;2023-02-14T02:02:54;102393.94;;;-1.24;100.00
45050;BME280;61798;48.048;-1.928;2023-02-14T02:05:08;102394.94;;;-1.26;100.00
45050;BME280;61798;48.048;-1.928;2023-02-14T02:07:26;102416.78;;;-1.24;100.00
45050;BME280;61798;48.048;-1.928;2023-02-14T02:10:09;102418.69;;;-1.28;100.00
45050;BME280;61798;48.048;-1.928;2023-02-14T02:12:19;102406.16;;;-1.42;100.00
45050;BME280;61798;48.048;-1.928;2023-02-14T02:14:32;102402.75;;;-1.44;100.00
45050;BME280;61798;48.048;-1.928;2023-02-14T02:24:34;102409.28;;;-1.14;100.00
45050;BME280;61798;48.048;-1.928;2023-02-14T02:52:26;102376.06;;;-1.75;100.00
45050;BME280;61798;48.048;-1.928;2023-02-14T02:54:57;102356.00;;;-1.99;100.00
45050;BME280;61798;48.048;-1.928;2023-02-14T02:57:12;102361.50;;;-2.04;100.00
45050;BME280;61798;48.048;-1.928;2023-02-14T02:59:23;102381.03;;;-1.90;100.00
45050;BME280;61798;48.048;-1.928;2023-02-14T03:01:36;102385.25;;;-1.86;100.00
45050;BME280;61798;48.048;-1.928;2023-02-14T03:03:46;102355.28;;;-2.03;100.00
45050;BME280;61798;48.048;-1.928;2023-02-14T03:06:11;102338.81;;;-2.06;100.00
45050;BME280;61798;48.048;-1.928;2023-02-14T03:08:17;102362.81;;;-1.74;100.00
45050;BME280;61798;48.048;-1.928;2023-02-14T03:10:26;102377.44;;;-1.47;100.00
45050;BME280;61798;48.048;-1.928;2023-02-14T03:14:54;102340.50;;;-1.84;100.00
45050;BME280;61798;48.048;-1.928;2023-02-14T03:17:10;102375.63;;;-1.66;100.00
45050;BME280;61798;48.048;-1.928;2023-02-14T03:19:22;102382.09;;;-1.73;100.00
45050;BME280;61798;48.048;-1.928;2023-02-14T03:28:52;102345.34;;;-2.15;100.00
45050;BME280;61798;48.048;-1.928;2023-02-14T03:33:31;102368.44;;;-2.03;100.00
45050;BME280;61798;48.048;-1.928;2023-02-14T03:36:01;102345.84;;;-2.07;100.00
45050;BME280;61798;48.048;-1.928;2023-02-14T03:38:18;102325.63;;;-2.26;100.00
45050;BME280;61798;48.048;-1.928;2023-02-14T03:40:33;102349.31;;;-2.06;100.00
45050;BME280;61798;48.048;-1.928;2023-02-14T03:43:00;102348.22;;;-2.00;100.00
45050;BME280;61798;48.048;-1.928;2023-02-14T03:45:20;102323.38;;;-2.14;100.00
45050;BME280;61798;48.048;-1.928;2023-02-14T03:47:30;102359.59;;;-2.00;100.00
45050;BME280;61798;48.048;-1.928;2023-02-14T03:49:44;102307.59;;;-1.93;100.00
45050;BME280;61798;48.048;-1.928;2023-02-14T03:51:53;102349.81;;;-1.77;100.00
45050;BME280;61798;48.048;-1.928;2023-02-14T03:54:02;102290.72;;;-2.28;100.00
45050;BME280;61798;48.048;-1.928;2023-02-14T03:56:26;102356.09;;;-1.79;100.00
45050;BME280;61798;48.048;-1.928;2023-02-14T03:58:37;102316.94;;;-2.07;100.00
45050;BME280;61798;48.048;-1.928;2023-02-14T04:00:46;102333.31;;;-2.00;100.00
45050;BME280;61798;48.048;-1.928;2023-02-14T04:02:59;102316.13;;;-2.07;100.00
45050;BME280;61798;48.048;-1.928;2023-02-14T04:05:12;102328.91;;;-1.99;100.00
45050;BME280;61798;48.048;-1.928;2023-02-14T04:07:22;102349.13;;;-1.81;100.00
45050;BME280;61798;48.048;-1.928;2023-02-14T04:09:28;102344.13;;;-1.87;100.00
45050;BME280;61798;48.048;-1.928;2023-02-14T04:11:34;102346.63;;;-1.84;100.00
45050;BME280;61798;48.048;-1.928;2023-02-14T04:13:43;102323.00;;;-2.05;100.00
45050;BME280;61798;48.048;-1.928;2023-02-14T04:15:49;102346.38;;;-1.98;100.00
45050;BME280;61798;48.048;-1.928;2023-02-14T04:17:55;102309.94;;;-2.48;100.00
45050;BME280;61798;48.048;-1.928;2023-02-14T04:20:19;102317.09;;;-2.52;100.00
45050;BME280;61798;48.048;-1.928;2023-02-14T04:22:25;102314.59;;;-2.55;100.00
45050;BME280;61798;48.048;-1.928;2023-02-14T04:24:32;102329.91;;;-2.44;100.00
45050;BME280;61798;48.048;-1.928;2023-02-14T04:26:38;102312.69;;;-2.51;100.00
45050;BME280;61798;48.048;-1.928;2023-02-14T04:28:44;102339.94;;;-2.33;100.00
45050;BME280;61798;48.048;-1.928;2023-02-14T04:30:50;102315.09;;;-2.47;100.00
45050;BME280;61798;48.048;-1.928;2023-02-14T04:32:55;102287.81;;;-2.63;100.00
45050;BME280;61798;48.048;-1.928;2023-02-14T04:35:01;102337.44;;;-2.36;100.00
45050;BME280;61798;48.048;-1.928;2023-02-14T04:37:08;102346.97;;;-2.34;100.00
45050;BME280;61798;48.048;-1.928;2023-02-14T04:39:14;102335.16;;;-2.44;100.00
45050;BME280;61798;48.048;-1.928;2023-02-14T04:41:20;102342.91;;;-2.41;100.00
45050;BME280;61798;48.048;-1.928;2023-02-14T04:43:26;102292.72;;;-2.77;100.00
45050;BME280;61798;48.048;-1.928;2023-02-14T04:45:32;102316.38;;;-2.56;100.00
45050;BME280;61798;48.048;-1.928;2023-02-14T04:47:38;102306.78;;;-2.57;100.00
45050;BME280;61798;48.048;-1.928;2023-02-14T04:49:45;102312.38;;;-2.43;100.00
45050;BME280;61798;48.048;-1.928;2023-02-14T04:51:51;102331.03;;;-2.29;100.00
45050;BME280;61798;48.048;-1.928;2023-02-14T04:53:57;102302.78;;;-2.45;100.00
45050;BME280;61798;48.048;-1.928;2023-02-14T04:56:03;102320.03;;;-2.39;100.00
45050;BME280;61798;48.048;-1.928;2023-02-14T04:58:09;102323.25;;;-2.53;100.00
45050;BME280;61798;48.048;-1.928;2023-02-14T05:00:16;102321.00;;;-2.62;100.00
45050;BME280;61798;48.048;-1.928;2023-02-14T05:02:22;102298.56;;;-2.70;100.00
45050;BME280;61798;48.048;-1.928;2023-02-14T05:04:28;102300.34;;;-2.49;100.00
45050;BME280;61798;48.048;-1.928;2023-02-14T05:06:34;102273.72;;;-2.40;100.00
45050;BME280;61798;48.048;-1.928;2023-02-14T05:08:40;102331.59;;;-2.22;100.00
45050;BME280;61798;48.048;-1.928;2023-02-14T05:10:46;102282.28;;;-2.57;100.00
45050;BME280;61798;48.048;-1.928;2023-02-14T05:12:52;102311.44;;;-2.42;100.00
45050;BME280;61798;48.048;-1.928;2023-02-14T05:14:58;102277.75;;;-2.74;100.00
45050;BME280;61798;48.048;-1.928;2023-02-14T05:17:04;102264.31;;;-2.88;100.00
45050;BME280;61798;48.048;-1.928;2023-02-14T05:19:10;102321.72;;;-2.59;100.00
45050;BME280;61798;48.048;-1.928;2023-02-14T05:21:16;102297.06;;;-2.76;100.00
45050;BME280;61798;48.048;-1.928;2023-02-14T05:23:22;102301.91;;;-2.87;100.00
45050;BME280;61798;48.048;-1.928;2023-02-14T05:25:29;102290.78;;;-2.94;100.00
45050;BME280;61798;48.048;-1.928;2023-02-14T05:27:35;102315.56;;;-2.79;100.00
45050;BME280;61798;48.048;-1.928;2023-02-14T05:29:42;102314.69;;;-2.79;100.00
45050;BME280;61798;48.048;-1.928;2023-02-14T05:31:48;102298.00;;;-2.99;100.00
45050;BME280;61798;48.048;-1.928;2023-02-14T05:33:54;102333.44;;;-2.89;100.00
45050;BME280;61798;48.048;-1.928;2023-02-14T05:36:00;102328.13;;;-2.87;100.00
45050;BME280;61798;48.048;-1.928;2023-02-14T05:38:07;102326.72;;;-2.96;100.00
45050;BME280;61798;48.048;-1.928;2023-02-14T05:40:13;102324.31;;;-3.02;100.00
45050;BME280;61798;48.048;-1.928;2023-02-14T05:42:20;102326.03;;;-3.01;100.00
45050;BME280;61798;48.048;-1.928;2023-02-14T05:44:26;102315.19;;;-3.14;100.00
45050;BME280;61798;48.048;-1.928;2023-02-14T05:46:32;102318.00;;;-3.19;100.00
45050;BME280;61798;48.048;-1.928;2023-02-14T05:48:39;102307.56;;;-3.21;100.00
45050;BME280;61798;48.048;-1.928;2023-02-14T05:50:45;102291.25;;;-3.29;100.00
45050;BME280;61798;48.048;-1.928;2023-02-14T05:52:51;102298.91;;;-3.00;100.00
45050;BME280;61798;48.048;-1.928;2023-02-14T05:54:57;102319.63;;;-2.94;100.00
45050;BME280;61798;48.048;-1.928;2023-02-14T05:57:03;102299.00;;;-3.26;100.00
45050;BME280;61798;48.048;-1.928;2023-02-14T05:59:09;102324.09;;;-2.96;100.00
45050;BME280;61798;48.048;-1.928;2023-02-14T06:01:15;102296.88;;;-2.93;100.00
45050;BME280;61798;48.048;-1.928;2023-02-14T06:03:21;102295.97;;;-2.92;100.00
45050;BME280;61798;48.048;-1.928;2023-02-14T06:05:27;102333.13;;;-2.81;100.00
45050;BME280;61798;48.048;-1.928;2023-02-14T06:07:33;102319.53;;;-2.91;100.00
45050;BME280;61798;48.048;-1.928;2023-02-14T06:09:39;102293.16;;;-3.10;100.00
45050;BME280;61798;48.048;-1.928;2023-02-14T06:11:45;102309.69;;;-2.85;100.00
45050;BME280;61798;48.048;-1.928;2023-02-14T06:13:51;102302.88;;;-3.12;100.00
45050;BME280;61798;48.048;-1.928;2023-02-14T06:15:57;102301.97;;;-3.11;100.00
45050;BME280;61798;48.048;-1.928;2023-02-14T06:18:04;102322.03;;;-2.88;100.00
45050;BME280;61798;48.048;-1.928;2023-02-14T06:20:10;102298.84;;;-2.99;100.00
45050;BME280;61798;48.048;-1.928;2023-02-14T06:22:16;102256.66;;;-3.15;100.00
45050;BME280;61798;48.048;-1.928;2023-02-14T06:24:22;102283.84;;;-2.95;100.00
45050;BME280;61798;48.048;-1.928;2023-02-14T06:26:28;102291.56;;;-2.92;100.00
45050;BME280;61798;48.048;-1.928;2023-02-14T06:28:35;102258.97;;;-3.07;100.00
45050;BME280;61798;48.048;-1.928;2023-02-14T06:30:41;102306.19;;;-2.86;100.00
45050;BME280;61798;48.048;-1.928;2023-02-14T06:32:47;102288.97;;;-2.92;100.00
45050;BME280;61798;48.048;-1.928;2023-02-14T06:34:53;102241.00;;;-3.18;100.00
45050;BME280;61798;48.048;-1.928;2023-02-14T06:36:59;102308.09;;;-2.90;100.00
45050;BME280;61798;48.048;-1.928;2023-02-14T06:39:05;102275.22;;;-3.21;100.00
45050;BME280;61798;48.048;-1.928;2023-02-14T06:41:11;102265.72;;;-3.24;100.00
45050;BME280;61798;48.048;-1.928;2023-02-14T06:43:17;102253.84;;;-3.33;100.00
45050;BME280;61798;48.048;-1.928;2023-02-14T06:45:23;102300.19;;;-2.88;100.00
45050;BME280;61798;48.048;-1.928;2023-02-14T06:47:29;102293.72;;;-3.02;100.00
45050;BME280;61798;48.048;-1.928;2023-02-14T06:49:35;102273.91;;;-3.32;100.00
45050;BME280;61798;48.048;-1.928;2023-02-14T06:51:41;102270.75;;;-3.42;100.00
45050;BME280;61798;48.048;-1.928;2023-02-14T06:53:47;102282.13;;;-3.41;100.00
45050;BME280;61798;48.048;-1.928;2023-02-14T06:55:54;102276.75;;;-3.38;100.00
45050;BME280;61798;48.048;-1.928;2023-02-14T06:58:00;102251.97;;;-3.53;100.00
45050;BME280;61798;48.048;-1.928;2023-02-14T07:00:07;102254.81;;;-3.13;100.00
45050;BME280;61798;48.048;-1.928;2023-02-14T07:02:14;102263.22;;;-3.04;100.00
45050;BME280;61798;48.048;-1.928;2023-02-14T07:04:20;102255.53;;;-3.09;100.00
45050;BME280;61798;48.048;-1.928;2023-02-14T07:06:26;102275.59;;;-3.08;100.00
45050;BME280;61798;48.048;-1.928;2023-02-14T07:08:32;102261.75;;;-3.34;100.00
45050;BME280;61798;48.048;-1.928;2023-02-14T07:10:38;102307.94;;;-3.08;100.00
45050;BME280;61798;48.048;-1.928;2023-02-14T07:12:44;102268.94;;;-3.17;100.00
45050;BME280;61798;48.048;-1.928;2023-02-14T07:14:51;102245.97;;;-3.33;100.00
45050;BME280;61798;48.048;-1.928;2023-02-14T07:16:57;102251.25;;;-3.34;100.00
45050;BME280;61798;48.048;-1.928;2023-02-14T07:19:03;102272.31;;;-3.13;100.00
45050;BME280;61798;48.048;-1.928;2023-02-14T07:21:09;102261.75;;;-3.34;100.00
45050;BME280;61798;48.048;-1.928;2023-02-14T07:23:15;102288.47;;;-3.24;100.00
45050;BME280;61798;48.048;-1.928;2023-02-14T07:25:21;102276.41;;;-3.29;100.00
45050;BME280;61798;48.048;-1.928;2023-02-14T07:27:27;102281.50;;;-3.25;100.00
45050;BME280;61798;48.048;-1.928;2023-02-14T07:29:33;102292.25;;;-3.32;100.00
45050;BME280;61798;48.048;-1.928;2023-02-14T07:31:39;102284.72;;;-3.41;100.00
45050;BME280;61798;48.048;-1.928;2023-02-14T07:33:45;102295.66;;;-3.30;100.00
45050;BME280;61798;48.048;-1.928;2023-02-14T07:35:51;102296.06;;;-3.63;100.00
45050;BME280;61798;48.048;-1.928;2023-02-14T07:37:57;102317.38;;;-3.50;100.00
45050;BME280;61798;48.048;-1.928;2023-02-14T07:40:05;102311.47;;;-3.55;100.00
45050;BME280;61798;48.048;-1.928;2023-02-14T07:42:11;102278.34;;;-3.80;100.00
45050;BME280;61798;48.048;-1.928;2023-02-14T07:44:17;102289.34;;;-3.70;100.00
45050;BME280;61798;48.048;-1.928;2023-02-14T07:46:24;102274.06;;;-3.83;100.00
45050;BME280;61798;48.048;-1.928;2023-02-14T07:48:30;102319.41;;;-3.57;100.00
45050;BME280;61798;48.048;-1.928;2023-02-14T07:50:36;102250.69;;;-3.89;100.00
45050;BME280;61798;48.048;-1.928;2023-02-14T07:52:43;102302.19;;;-3.64;100.00
45050;BME280;61798;48.048;-1.928;2023-02-14T07:54:49;102281.97;;;-3.61;100.00
45050;BME280;61798;48.048;-1.928;2023-02-14T07:56:55;102247.63;;;-3.77;100.00
45050;BME280;61798;48.048;-1.928;2023-02-14T07:59:01;102279.69;;;-3.70;100.00
45050;BME280;61798;48.048;-1.928;2023-02-14T08:01:07;102260.00;;;-3.80;100.00
45050;BME280;61798;48.048;-1.928;2023-02-14T08:03:14;102295.03;;;-3.59;100.00
45050;BME280;61798;48.048;-1.928;2023-02-14T08:05:21;102318.81;;;-3.41;100.00
45050;BME280;61798;48.048;-1.928;2023-02-14T08:07:27;102301.63;;;-3.48;100.00
45050;BME280;61798;48.048;-1.928;2023-02-14T08:09:33;102304.56;;;-3.34;100.00
45050;BME280;61798;48.048;-1.928;2023-02-14T08:11:39;102282.19;;;-3.43;100.00
45050;BME280;61798;48.048;-1.928;2023-02-14T08:14:04;102269.69;;;-3.13;100.00
45050;BME280;61798;48.048;-1.928;2023-02-14T08:16:10;102312.44;;;-2.89;100.00
45050;BME280;61798;48.048;-1.928;2023-02-14T08:18:18;102274.78;;;-3.10;100.00
45050;BME280;61798;48.048;-1.928;2023-02-14T08:20:24;102286.28;;;-3.13;100.00
45050;BME280;61798;48.048;-1.928;2023-02-14T08:22:30;102263.88;;;-3.22;100.00
45050;BME280;61798;48.048;-1.928;2023-02-14T08:24:36;102272.13;;;-3.09;100.00
45050;BME280;61798;48.048;-1.928;2023-02-14T08:26:42;102319.31;;;-2.63;100.00
45050;BME280;61798;48.048;-1.928;2023-02-14T08:28:48;102272.44;;;-2.73;100.00
45050;BME280;61798;48.048;-1.928;2023-02-14T08:30:55;102313.97;;;-2.39;100.00
45050;BME280;61798;48.048;-1.928;2023-02-14T08:33:01;102270.31;;;-2.63;100.00
45050;BME280;61798;48.048;-1.928;2023-02-14T08:35:07;102271.34;;;-2.67;100.00
45050;BME280;61798;48.048;-1.928;2023-02-14T08:37:13;102285.72;;;-2.55;100.00
45050;BME280;61798;48.048;-1.928;2023-02-14T08:39:19;102279.94;;;-2.42;100.00
45050;BME280;61798;48.048;-1.928;2023-02-14T08:41:25;102304.22;;;-2.16;100.00
45050;BME280;61798;48.048;-1.928;2023-02-14T08:43:31;102268.75;;;-2.27;100.00
45050;BME280;61798;48.048;-1.928;2023-02-14T08:45:38;102293.75;;;-1.97;100.00
45050;BME280;61798;48.048;-1.928;2023-02-14T08:47:44;102279.91;;;-2.00;100.00
45050;BME280;61798;48.048;-1.928;2023-02-14T08:49:50;102267.78;;;-1.64;100.00
45050;BME280;61798;48.048;-1.928;2023-02-14T08:51:56;102275.47;;;-1.60;100.00
45050;BME280;61798;48.048;-1.928;2023-02-14T08:54:02;102259.53;;;-1.76;100.00
45050;BME280;61798;48.048;-1.928;2023-02-14T08:56:13;102306.16;;;-1.41;100.00
45050;BME280;61798;48.048;-1.928;2023-02-14T08:58:19;102285.88;;;-1.39;100.00
45050;BME280;61798;48.048;-1.928;2023-02-14T09:00:26;102252.00;;;-1.45;100.00
45050;BME280;61798;48.048;-1.928;2023-02-14T09:02:32;102293.97;;;-1.24;100.00
45050;BME280;61798;48.048;-1.928;2023-02-14T09:04:39;102304.91;;;-1.14;100.00
45050;BME280;61798;48.048;-1.928;2023-02-14T09:06:45;102279.41;;;-1.31;100.00
45050;BME280;61798;48.048;-1.928;2023-02-14T09:08:51;102301.84;;;-0.87;100.00
45050;BME280;61798;48.048;-1.928;2023-02-14T09:11:13;102298.34;;;-1.05;100.00
45050;BME280;61798;48.048;-1.928;2023-02-14T09:13:20;102258.34;;;-1.31;100.00
45050;BME280;61798;48.048;-1.928;2023-02-14T09:15:26;102265.38;;;-1.12;100.00
45050;BME280;61798;48.048;-1.928;2023-02-14T09:17:32;102271.56;;;-0.96;100.00
45050;BME280;61798;48.048;-1.928;2023-02-14T09:19:38;102283.22;;;-0.64;100.00
45050;BME280;61798;48.048;-1.928;2023-02-14T09:21:44;102271.13;;;-0.86;100.00
45050;BME280;61798;48.048;-1.928;2023-02-14T09:23:51;102276.63;;;-0.73;100.00
45050;BME280;61798;48.048;-1.928;2023-02-14T09:26:02;102253.63;;;-0.87;100.00
45050;BME280;61798;48.048;-1.928;2023-02-14T09:28:08;102256.72;;;-0.79;100.00
45050;BME280;61798;48.048;-1.928;2023-02-14T09:30:15;102242.66;;;-0.60;100.00
45050;BME280;61798;48.048;-1.928;2023-02-14T09:32:21;102237.22;;;-0.75;100.00
45050;BME280;61798;48.048;-1.928;2023-02-14T09:34:27;102259.72;;;-0.51;100.00
45050;BME280;61798;48.048;-1.928;2023-02-14T09:36:52;102240.13;;;-0.63;100.00
45050;BME280;61798;48.048;-1.928;2023-02-14T09:39:17;102246.44;;;-0.32;100.00
45050;BME280;61798;48.048;-1.928;2023-02-14T09:43:43;102225.66;;;-0.54;100.00
45050;BME280;61798;48.048;-1.928;2023-02-14T09:45:55;102256.75;;;-0.27;100.00
45050;BME280;61798;48.048;-1.928;2023-02-14T09:48:30;102253.72;;;-0.19;100.00
45050;BME280;61798;48.048;-1.928;2023-02-14T09:50:50;102255.41;;;-0.18;100.00
45050;BME280;61798;48.048;-1.928;2023-02-14T09:53:15;102252.13;;;-0.05;100.00
45050;BME280;61798;48.048;-1.928;2023-02-14T09:55:25;102230.84;;;-0.18;100.00
45050;BME280;61798;48.048;-1.928;2023-02-14T09:59:52;102234.88;;;0.05;100.00
45050;BME280;61798;48.048;-1.928;2023-02-14T10:04:41;102223.31;;;0.24;100.00
45050;BME280;61798;48.048;-1.928;2023-02-14T10:11:37;102212.28;;;0.34;100.00
45050;BME280;61798;48.048;-1.928;2023-02-14T10:13:55;102250.47;;;0.75;100.00
45050;BME280;61798;48.048;-1.928;2023-02-14T10:18:52;102250.75;;;1.01;100.00
45050;BME280;61798;48.048;-1.928;2023-02-14T10:21:00;102249.81;;;1.02;100.00
45050;BME280;61798;48.048;-1.928;2023-02-14T10:25:34;102245.09;;;1.39;100.00
45050;BME280;61798;48.048;-1.928;2023-02-14T10:27:44;102239.97;;;2.24;100.00
45050;BME280;61798;48.048;-1.928;2023-02-14T10:29:51;102203.94;;;1.64;100.00
45050;BME280;61798;48.048;-1.928;2023-02-14T10:32:02;102236.16;;;1.71;100.00
45050;BME280;61798;48.048;-1.928;2023-02-14T10:34:15;102228.41;;;2.39;100.00
45050;BME280;61798;48.048;-1.928;2023-02-14T10:41:57;102223.81;;;2.56;100.00
45050;BME280;61798;48.048;-1.928;2023-02-14T10:46:56;102213.66;;;2.91;100.00
45050;BME280;61798;48.048;-1.928;2023-02-14T10:49:39;102218.88;;;3.19;100.00
45050;BME280;61798;48.048;-1.928;2023-02-14T10:58:18;102209.53;;;3.00;100.00
45050;BME280;61798;48.048;-1.928;2023-02-14T11:00:31;102199.25;;;2.95;100.00
45050;BME280;61798;48.048;-1.928;2023-02-14T11:02:41;102204.28;;;3.13;100.00
45050;BME280;61798;48.048;-1.928;2023-02-14T11:04:48;102207.03;;;3.24;100.00
45050;BME280;61798;48.048;-1.928;2023-02-14T11:06:55;102200.47;;;3.17;100.00
45050;BME280;61798;48.048;-1.928;2023-02-14T11:09:01;102200.94;;;3.88;100.00
45050;BME280;61798;48.048;-1.928;2023-02-14T11:11:44;102190.66;;;3.83;100.00
45050;BME280;61798;48.048;-1.928;2023-02-14T11:13:51;102179.53;;;4.16;100.00
45050;BME280;61798;48.048;-1.928;2023-02-14T11:16:03;102171.47;;;4.42;100.00
45050;BME280;61798;48.048;-1.928;2023-02-14T11:18:22;102173.31;;;4.78;100.00
45050;BME280;61798;48.048;-1.928;2023-02-14T11:20:28;102164.28;;;4.31;100.00
45050;BME280;61798;48.048;-1.928;2023-02-14T11:22:35;102166.69;;;4.83;100.00
45050;BME280;61798;48.048;-1.928;2023-02-14T11:24:41;102152.13;;;5.58;100.00
45050;BME280;61798;48.048;-1.928;2023-02-14T11:26:49;102158.13;;;5.03;100.00
45050;BME280;61798;48.048;-1.928;2023-02-14T11:29:03;102145.84;;;5.71;100.00
45050;BME280;61798;48.048;-1.928;2023-02-14T11:33:40;102069.25;;;5.53;100.00
45050;BME280;61798;48.048;-1.928;2023-02-14T11:35:51;102096.41;;;6.68;100.00
45050;BME280;61798;48.048;-1.928;2023-02-14T11:37:58;102081.69;;;6.73;100.00
45050;BME280;61798;48.048;-1.928;2023-02-14T11:40:05;102087.63;;;6.34;100.00
45050;BME280;61798;48.048;-1.928;2023-02-14T11:42:12;102074.50;;;6.21;100.00
45050;BME280;61798;48.048;-1.928;2023-02-14T11:44:22;102081.69;;;6.09;100.00
45050;BME280;61798;48.048;-1.928;2023-02-14T11:46:29;102038.78;;;6.45;100.00
45050;BME280;61798;48.048;-1.928;2023-02-14T11:49:01;102044.28;;;7.58;100.00
45050;BME280;61798;48.048;-1.928;2023-02-14T11:51:12;102041.16;;;7.43;100.00
45050;BME280;61798;48.048;-1.928;2023-02-14T11:53:22;102022.88;;;7.28;100.00
45050;BME280;61798;48.048;-1.928;2023-02-14T11:55:32;102015.09;;;7.96;100.00
45050;BME280;61798;48.048;-1.928;2023-02-14T11:57:41;101998.94;;;8.08;100.00
45050;BME280;61798;48.048;-1.928;2023-02-14T11:59:50;102002.88;;;7.64;100.00
45050;BME280;61798;48.048;-1.928;2023-02-14T12:02:01;102034.09;;;7.22;100.00
45050;BME280;61798;48.048;-1.928;2023-02-14T12:04:32;102019.31;;;7.89;100.00
45050;BME280;61798;48.048;-1.928;2023-02-14T12:06:39;101986.59;;;7.67;100.00
45050;BME280;61798;48.048;-1.928;2023-02-14T12:08:45;102001.00;;;7.34;100.00
45050;BME280;61798;48.048;-1.928;2023-02-14T12:11:15;101990.22;;;7.66;100.00
45050;BME280;61798;48.048;-1.928;2023-02-14T12:13:23;102008.44;;;8.20;100.00
45050;BME280;61798;48.048;-1.928;2023-02-14T12:15:51;102007.19;;;8.34;100.00
45050;BME280;61798;48.048;-1.928;2023-02-14T12:20:34;101996.81;;;8.80;100.00
45050;BME280;61798;48.048;-1.928;2023-02-14T12:25:15;101983.66;;;8.48;100.00
45050;BME280;61798;48.048;-1.928;2023-02-14T12:27:28;101979.66;;;8.24;100.00
45050;BME280;61798;48.048;-1.928;2023-02-14T12:29:53;101968.81;;;9.30;100.00
45050;BME280;61798;48.048;-1.928;2023-02-14T12:32:22;101957.56;;;9.27;100.00
45050;BME280;61798;48.048;-1.928;2023-02-14T12:34:29;101919.53;;;8.86;100.00